createdAt,value
2023-01-19T00:01:32.318Z,15.40
2023-01-19T00:06:34.469Z,15.22
2023-01-19T00:11:36.735Z,15.08
2023-01-19T00:16:39.407Z,15.25
2023-01-19T00:21:41.493Z,15.10
2023-01-19T00:26:43.546Z,14.95
2023-01-19T00:31:45.655Z,15.15
2023-01-19T00:36:47.835Z,14.90
2023-01-19T00:42:08.423Z,15.23
2023-01-19T00:47:10.619Z,15.13
2023-01-19T00:52:12.684Z,15.07
2023-01-19T00:57:16.115Z,15.08
2023-01-19T01:02:18.600Z,14.83
2023-01-19T01:07:24.469Z,14.64
2023-01-19T01:12:26.765Z,14.48
2023-01-19T01:17:28.899Z,14.52
2023-01-19T01:22:31.672Z,14.63
2023-01-19T01:27:33.905Z,14.45
2023-01-19T01:32:36.162Z,14.25
2023-01-19T01:37:38.995Z,14.53
2023-01-19T01:42:41.357Z,14.73
2023-01-19T01:47:47.436Z,14.56
2023-01-19T01:53:08.098Z,14.63
2023-01-19T01:58:11.851Z,14.71
2023-01-19T02:03:13.969Z,14.76
2023-01-19T02:09:00.656Z,14.72
2023-01-19T02:14:05.428Z,14.79
2023-01-19T02:19:11.349Z,14.84
2023-01-19T02:24:13.843Z,14.76
2023-01-19T02:29:20.193Z,14.80
2023-01-19T02:34:23.274Z,14.82
2023-01-19T02:39:36.809Z,14.93
2023-01-19T02:44:41.831Z,14.99
2023-01-19T02:49:44.005Z,14.90
2023-01-19T02:55:34.224Z,15.00
2023-01-19T03:00:56.718Z,15.10
2023-01-19T03:06:19.038Z,15.18
2023-01-19T03:11:21.252Z,15.26
2023-01-19T03:16:30.771Z,15.22
2023-01-19T03:21:36.246Z,15.32
2023-01-19T03:26:44.608Z,15.30
2023-01-19T03:31:50.890Z,15.36
2023-01-19T03:36:55.393Z,15.21
2023-01-19T03:42:10.028Z,15.20
2023-01-19T03:47:14.989Z,15.24
2023-01-19T03:52:17.206Z,15.06
2023-01-19T03:57:19.326Z,15.07
2023-01-19T04:02:21.390Z,15.07
2023-01-19T04:07:23.493Z,14.96
2023-01-19T04:12:25.652Z,14.74
2023-01-19T04:17:27.745Z,14.68
2023-01-19T04:22:29.973Z,14.80
2023-01-19T04:27:32.025Z,14.94
2023-01-19T04:32:34.162Z,14.42
2023-01-19T04:37:36.245Z,14.25
2023-01-19T04:42:38.491Z,14.10
2023-01-19T04:47:40.857Z,14.15
2023-01-19T04:52:42.997Z,14.16
2023-01-19T04:57:45.843Z,14.39
2023-01-19T05:02:48.279Z,14.92
2023-01-19T05:07:50.409Z,15.32
2023-01-19T05:12:52.734Z,15.54
2023-01-19T05:17:54.834Z,15.61
2023-01-19T05:22:57.124Z,15.46
2023-01-19T05:27:59.274Z,15.58
2023-01-19T05:33:01.817Z,15.50
2023-01-19T05:38:04.865Z,15.69
2023-01-19T05:43:07.006Z,15.63
2023-01-19T05:48:09.512Z,15.85
2023-01-19T05:53:12.335Z,15.32
2023-01-19T05:58:14.463Z,15.64
2023-01-19T06:03:16.643Z,15.26
2023-01-19T06:08:18.954Z,15.36
2023-01-19T06:13:21.643Z,14.79
2023-01-19T06:18:23.890Z,15.08
2023-01-19T06:23:31.392Z,15.31
2023-01-19T06:28:33.567Z,15.32
2023-01-19T06:33:35.709Z,15.37
2023-01-19T06:38:37.867Z,15.72
2023-01-19T06:43:40.093Z,15.39
2023-01-19T06:48:42.267Z,14.96
2023-01-19T06:53:44.471Z,15.22
2023-01-19T06:58:50.920Z,15.16
2023-01-19T07:03:53.388Z,15.02
2023-01-19T07:08:55.827Z,15.23
2023-01-19T07:13:57.994Z,15.13
2023-01-19T07:19:00.110Z,15.18
2023-01-19T07:24:02.268Z,15.42
2023-01-19T07:29:04.558Z,15.84
2023-01-19T07:34:07.363Z,16.19
2023-01-19T07:39:09.551Z,16.41
2023-01-19T07:44:11.673Z,16.72
2023-01-19T07:49:13.732Z,16.97
2023-01-19T07:54:16.049Z,17.01
2023-01-19T07:59:18.189Z,17.32
2023-01-19T08:04:20.915Z,17.88
2023-01-19T08:09:24.708Z,17.98
2023-01-19T08:14:26.791Z,18.00
2023-01-19T08:19:30.053Z,18.23
2023-01-19T08:24:32.320Z,18.33
2023-01-19T08:29:34.472Z,18.43
2023-01-19T08:34:36.540Z,18.79
2023-01-19T08:39:38.699Z,18.93
2023-01-19T08:44:49.717Z,18.90
2023-01-19T08:49:59.179Z,18.86
2023-01-19T08:55:01.928Z,19.05
2023-01-19T09:00:04.816Z,19.24
2023-01-19T09:05:07.570Z,19.36
2023-01-19T09:10:10.836Z,19.57
2023-01-19T09:15:16.715Z,19.88
2023-01-19T09:20:18.943Z,19.95
2023-01-19T09:25:21.011Z,20.03
2023-01-19T09:30:23.226Z,20.08
2023-01-19T09:35:25.324Z,20.25
2023-01-19T09:40:28.527Z,20.22
2023-01-19T09:45:37.172Z,20.39
2023-01-19T09:50:46.911Z,20.13
2023-01-19T09:55:50.340Z,20.56
2023-01-19T10:01:06.107Z,20.54
2023-01-19T10:06:12.186Z,20.54
2023-01-19T10:11:53.162Z,20.58
2023-01-19T10:17:28.267Z,20.73
2023-01-19T10:22:30.371Z,20.97
2023-01-19T10:27:36.761Z,20.71
2023-01-19T10:32:39.655Z,21.07
2023-01-19T10:37:42.405Z,21.16
2023-01-19T10:42:44.732Z,21.05
2023-01-19T10:47:55.818Z,21.13
2023-01-19T10:53:01.207Z,20.92
2023-01-19T10:58:04.173Z,20.99
2023-01-19T11:03:30.154Z,21.00
2023-01-19T11:08:32.331Z,21.07
2023-01-19T11:13:35.469Z,21.66
2023-01-19T11:18:40.162Z,20.85
2023-01-19T11:23:47.577Z,21.10
2023-01-19T11:28:51.707Z,21.04
2023-01-19T11:33:56.402Z,20.69
2023-01-19T11:39:00.980Z,20.59
2023-01-19T11:44:21.626Z,21.09
2023-01-19T11:49:48.884Z,21.06
2023-01-19T11:55:29.517Z,21.02
2023-01-19T12:00:35.852Z,20.90
2023-01-19T12:05:41.711Z,21.06
2023-01-19T12:10:47.363Z,21.36
2023-01-19T12:15:55.350Z,21.40
2023-01-19T12:20:59.050Z,21.10
2023-01-19T12:26:19.620Z,21.51
2023-01-19T12:31:23.601Z,21.75
2023-01-19T12:36:33.470Z,21.59
2023-01-19T12:41:38.658Z,21.52
2023-01-19T12:47:03.649Z,22.19
2023-01-19T12:52:34.630Z,22.27
2023-01-19T12:57:50.038Z,22.50
2023-01-19T13:02:54.641Z,22.71
2023-01-19T13:08:03.145Z,22.62
2023-01-19T13:13:24.353Z,22.89
2023-01-19T13:18:35.684Z,22.49
2023-01-19T13:23:50.246Z,22.65
2023-01-19T13:29:26.429Z,22.10
2023-01-19T13:34:43.086Z,22.11
2023-01-19T13:39:46.907Z,22.40
2023-01-19T13:44:52.762Z,22.58
2023-01-19T13:49:59.239Z,22.32
2023-01-19T13:55:04.396Z,22.14
2023-01-19T14:00:12.978Z,22.15
2023-01-19T14:05:36.132Z,22.09
2023-01-19T14:10:42.449Z,21.94
2023-01-19T14:15:46.254Z,21.61
2023-01-19T14:21:01.935Z,21.52
2023-01-19T14:26:04.167Z,21.41
2023-01-19T14:31:28.415Z,21.27
2023-01-19T14:36:36.608Z,20.97
2023-01-19T14:41:41.135Z,20.99
2023-01-19T14:46:48.567Z,21.12
2023-01-19T14:51:51.423Z,21.26
2023-01-19T14:56:54.393Z,20.78
2023-01-19T15:01:56.920Z,20.61
2023-01-19T15:06:59.077Z,20.45
2023-01-19T15:12:01.279Z,20.15
2023-01-19T15:17:03.530Z,19.82
2023-01-19T15:22:13.680Z,19.58
2023-01-19T15:27:16.635Z,19.04
2023-01-19T15:32:18.913Z,19.04
2023-01-19T15:37:21.269Z,19.05
2023-01-19T15:42:23.536Z,18.52
2023-01-19T15:47:25.680Z,18.67
2023-01-19T15:52:27.915Z,18.55
2023-01-19T15:57:30.129Z,18.36
2023-01-19T16:02:34.721Z,18.11
2023-01-19T16:07:37.159Z,17.99
2023-01-19T16:12:39.827Z,18.00
2023-01-19T16:17:42.363Z,18.00
2023-01-19T16:22:44.665Z,17.53
2023-01-19T16:27:46.915Z,17.79
2023-01-19T16:32:49.383Z,18.00
2023-01-19T16:37:52.078Z,18.46
2023-01-19T16:42:54.133Z,18.50
2023-01-19T16:47:56.303Z,18.80
2023-01-19T16:52:59.236Z,18.82
2023-01-19T16:58:01.560Z,18.64
2023-01-19T17:03:03.675Z,18.58
2023-01-19T17:08:05.924Z,18.92
2023-01-19T17:13:08.089Z,18.98
2023-01-19T17:18:10.579Z,18.67
2023-01-19T17:23:12.792Z,18.58
2023-01-19T17:28:14.962Z,18.60
2023-01-19T17:33:17.731Z,18.72
2023-01-19T17:38:19.923Z,18.55
2023-01-19T17:43:22.181Z,18.62
2023-01-19T17:48:24.292Z,18.29
2023-01-19T17:53:26.492Z,18.40
2023-01-19T17:58:31.263Z,18.23
2023-01-19T18:03:33.920Z,18.36
2023-01-19T18:08:39.371Z,18.45
2023-01-19T18:13:43.929Z,18.23
2023-01-19T18:18:46.150Z,17.88
2023-01-19T18:23:49.681Z,18.02
2023-01-19T18:28:59.208Z,18.24
2023-01-19T18:34:01.294Z,18.12
2023-01-19T18:39:04.604Z,17.83
2023-01-19T18:44:06.924Z,17.59
2023-01-19T18:49:09.992Z,17.53
2023-01-19T18:54:12.261Z,17.67
2023-01-19T18:59:14.309Z,17.68
2023-01-19T19:04:16.590Z,17.79
2023-01-19T19:09:18.958Z,17.68
2023-01-19T19:14:21.614Z,17.54
2023-01-19T19:19:23.863Z,17.61
2023-01-19T19:24:26.103Z,17.62
2023-01-19T19:29:28.850Z,17.46
2023-01-19T19:34:31.191Z,17.49
2023-01-19T19:39:33.301Z,17.14
2023-01-19T19:44:35.505Z,17.37
2023-01-19T19:49:37.757Z,17.47
2023-01-19T19:54:40.743Z,17.51
2023-01-19T19:59:42.874Z,17.27
2023-01-19T20:04:45.440Z,17.41
2023-01-19T20:09:48.069Z,17.24
2023-01-19T20:14:50.429Z,17.24
2023-01-19T20:19:52.768Z,17.29
2023-01-19T20:24:55.117Z,17.33
2023-01-19T20:29:58.564Z,17.08
2023-01-19T20:35:00.856Z,16.76
2023-01-19T20:40:03.187Z,17.15
2023-01-19T20:45:05.688Z,17.34
2023-01-19T20:50:08.425Z,17.40
2023-01-19T20:55:10.858Z,17.27
2023-01-19T21:00:13.447Z,17.28
2023-01-19T21:05:15.602Z,17.50
2023-01-19T21:10:18.162Z,17.47
2023-01-19T21:15:20.324Z,17.48
2023-01-19T21:20:22.394Z,17.14
2023-01-19T21:25:24.502Z,16.58
2023-01-19T21:30:26.657Z,15.95
2023-01-19T21:35:29.070Z,15.83
2023-01-19T21:40:31.540Z,15.40
2023-01-19T21:45:34.226Z,14.73
2023-01-19T21:50:36.493Z,14.64
2023-01-19T21:55:38.879Z,14.16
2023-01-19T22:00:41.451Z,14.84
2023-01-19T22:05:43.554Z,14.92
2023-01-19T22:10:45.688Z,14.57
2023-01-19T22:15:47.821Z,14.55
2023-01-19T22:20:49.897Z,14.22
2023-01-19T22:25:52.014Z,13.68
2023-01-19T22:30:54.211Z,13.37
2023-01-19T22:36:28.420Z,13.12
2023-01-19T22:41:33.187Z,12.97
2023-01-19T22:46:37.259Z,12.22
2023-01-19T22:51:39.691Z,12.47
2023-01-19T22:56:42.161Z,12.62
2023-01-19T23:01:44.868Z,12.98
2023-01-19T23:06:50.663Z,12.80
2023-01-19T23:11:53.329Z,12.87
2023-01-19T23:16:55.591Z,12.69
2023-01-19T23:21:57.795Z,12.61
2023-01-19T23:27:01.866Z,12.76
2023-01-19T23:32:04.114Z,12.34
2023-01-19T23:37:06.271Z,11.94
2023-01-19T23:42:08.535Z,11.24
2023-01-19T23:47:10.609Z,11.11
2023-01-19T23:52:12.737Z,11.02
2023-01-19T23:57:14.791Z,11.75
